sensor_id;sensor_type;location;lat;lon;timestamp;pressure;altitude;pressure_sealevel;temperature;humidity
45323;BME280;31382;50.200;8.674;2023-09-19T00:04:40;99725.66;;;18.90;73.07
45323;BME280;31382;50.200;8.674;2023-09-19T00:09:43;99736.59;;;18.95;72.96
45323;BME280;31382;50.200;8.674;2023-09-19T00:14:45;99730.03;;;19.08;72.70
45323;BME280;31382;50.200;8.674;2023-09-19T00:19:46;99745.03;;;19.11;72.83
45323;BME280;31382;50.200;8.674;2023-09-19T00:24:52;99735.81;;;19.12;72.73
45323;BME280;31382;50.200;8.674;2023-09-19T00:29:54;99740.16;;;19.13;72.85
45323;BME280;31382;50.200;8.674;2023-09-19T00:34:57;99744.06;;;19.17;72.73
45323;BME280;31382;50.200;8.674;2023-09-19T00:39:59;99744.91;;;19.17;72.79
45323;BME280;31382;50.200;8.674;2023-09-19T00:45:00;99745.78;;;19.23;72.71
45323;BME280;31382;50.200;8.674;2023-09-19T00:50:04;99756.44;;;19.25;72.82
45323;BME280;31382;50.200;8.674;2023-09-19T00:55:09;99748.69;;;19.33;72.50
45323;BME280;31382;50.200;8.674;2023-09-19T01:00:11;99759.75;;;19.44;72.52
45323;BME280;31382;50.200;8.674;2023-09-19T01:05:16;99774.63;;;19.36;72.38
45323;BME280;31382;50.200;8.674;2023-09-19T01:10:19;99774.09;;;19.39;72.30
45323;BME280;31382;50.200;8.674;2023-09-19T01:15:31;99775.25;;;19.43;72.10
45323;BME280;31382;50.200;8.674;2023-09-19T01:31:39;99797.47;;;19.35;72.17
45323;BME280;31382;50.200;8.674;2023-09-19T01:36:44;99808.31;;;19.30;72.23
45323;BME280;31382;50.200;8.674;2023-09-19T01:41:59;99808.47;;;19.23;72.61
45323;BME280;31382;50.200;8.674;2023-09-19T01:47:14;99814.31;;;19.15;72.84
45323;BME280;31382;50.200;8.674;2023-09-19T01:52:20;99816.69;;;19.11;72.77
45323;BME280;31382;50.200;8.674;2023-09-19T01:58:01;99814.72;;;19.07;72.61
45323;BME280;31382;50.200;8.674;2023-09-19T02:03:07;99823.28;;;18.98;72.84
45323;BME280;31382;50.200;8.674;2023-09-19T02:08:10;99826.25;;;18.97;72.79
45323;BME280;31382;50.200;8.674;2023-09-19T02:13:11;99830.53;;;18.93;72.81
45323;BME280;31382;50.200;8.674;2023-09-19T02:18:13;99834.09;;;18.93;72.90
45323;BME280;31382;50.200;8.674;2023-09-19T02:23:15;99846.06;;;18.92;73.10
45323;BME280;31382;50.200;8.674;2023-09-19T02:28:18;99856.38;;;18.90;73.00
45323;BME280;31382;50.200;8.674;2023-09-19T02:33:19;99852.22;;;18.88;73.31
45323;BME280;31382;50.200;8.674;2023-09-19T02:38:20;99851.41;;;18.87;73.31
45323;BME280;31382;50.200;8.674;2023-09-19T02:43:26;99853.19;;;18.81;73.47
45323;BME280;31382;50.200;8.674;2023-09-19T02:48:27;99844.69;;;18.78;73.48
45323;BME280;31382;50.200;8.674;2023-09-19T02:53:30;99845.72;;;18.77;73.49
45323;BME280;31382;50.200;8.674;2023-09-19T02:58:33;99846.56;;;18.77;73.32
45323;BME280;31382;50.200;8.674;2023-09-19T03:03:37;99847.53;;;18.71;73.10
45323;BME280;31382;50.200;8.674;2023-09-19T03:08:40;99861.50;;;18.75;72.71
45323;BME280;31382;50.200;8.674;2023-09-19T03:13:43;99862.31;;;18.75;72.51
45323;BME280;31382;50.200;8.674;2023-09-19T03:18:48;99861.97;;;18.72;72.32
45323;BME280;31382;50.200;8.674;2023-09-19T03:23:50;99874.31;;;18.62;72.43
45323;BME280;31382;50.200;8.674;2023-09-19T03:28:51;99870.16;;;18.60;72.25
45323;BME280;31382;50.200;8.674;2023-09-19T03:33:52;99874.31;;;18.62;72.06
45323;BME280;31382;50.200;8.674;2023-09-19T03:38:54;99886.75;;;18.58;72.08
45323;BME280;31382;50.200;8.674;2023-09-19T03:43:56;99885.09;;;18.57;71.95
45323;BME280;31382;50.200;8.674;2023-09-19T03:48:58;99881.19;;;18.53;72.02
45323;BME280;31382;50.200;8.674;2023-09-19T03:53:59;99885.47;;;18.49;72.17
45323;BME280;31382;50.200;8.674;2023-09-19T03:59:01;99877.75;;;18.46;72.40
45323;BME280;31382;50.200;8.674;2023-09-19T04:04:02;99879.66;;;18.46;72.46
45323;BME280;31382;50.200;8.674;2023-09-19T04:09:09;99882.38;;;18.46;72.64
45323;BME280;31382;50.200;8.674;2023-09-19T04:14:11;99890.75;;;18.56;72.66
45323;BME280;31382;50.200;8.674;2023-09-19T04:19:12;99900.81;;;18.67;72.50
45323;BME280;31382;50.200;8.674;2023-09-19T04:24:16;99910.06;;;18.66;72.42
45323;BME280;31382;50.200;8.674;2023-09-19T04:29:17;99911.94;;;18.66;72.61
45323;BME280;31382;50.200;8.674;2023-09-19T04:34:20;99923.06;;;18.64;72.53
45323;BME280;31382;50.200;8.674;2023-09-19T04:39:21;99915.50;;;18.66;72.35
45323;BME280;31382;50.200;8.674;2023-09-19T04:44:26;99922.59;;;18.67;72.24
45323;BME280;31382;50.200;8.674;2023-09-19T04:49:29;99927.44;;;18.65;71.83
45323;BME280;31382;50.200;8.674;2023-09-19T04:54:30;99935.25;;;18.61;71.56
45323;BME280;31382;50.200;8.674;2023-09-19T04:59:31;99934.69;;;18.59;71.37
45323;BME280;31382;50.200;8.674;2023-09-19T05:04:33;99938.00;;;18.50;71.49
45323;BME280;31382;50.200;8.674;2023-09-19T05:09:34;99944.41;;;18.43;71.40
45323;BME280;31382;50.200;8.674;2023-09-19T05:14:38;99946.06;;;18.45;71.20
45323;BME280;31382;50.200;8.674;2023-09-19T05:19:41;99952.09;;;18.47;71.02
45323;BME280;31382;50.200;8.674;2023-09-19T05:24:43;99951.97;;;18.41;70.86
45323;BME280;31382;50.200;8.674;2023-09-19T05:29:45;99948.91;;;18.38;70.79
45323;BME280;31382;50.200;8.674;2023-09-19T05:34:46;99953.06;;;18.40;70.57
45323;BME280;31382;50.200;8.674;2023-09-19T05:39:49;99973.03;;;18.34;70.63
45323;BME280;31382;50.200;8.674;2023-09-19T05:44:50;99970.06;;;18.24;70.81
45323;BME280;31382;50.200;8.674;2023-09-19T05:49:51;99963.22;;;18.33;70.55
45323;BME280;31382;50.200;8.674;2023-09-19T05:54:53;99976.69;;;18.40;70.34
45323;BME280;31382;50.200;8.674;2023-09-19T05:59:55;99981.31;;;18.39;70.33
45323;BME280;31382;50.200;8.674;2023-09-19T06:04:57;99984.84;;;18.28;70.52
45323;BME280;31382;50.200;8.674;2023-09-19T06:09:58;99979.41;;;18.28;70.39
45323;BME280;31382;50.200;8.674;2023-09-19T06:15:00;99979.41;;;18.28;70.36
45323;BME280;31382;50.200;8.674;2023-09-19T06:20:01;99995.75;;;18.40;69.93
45323;BME280;31382;50.200;8.674;2023-09-19T06:25:05;100001.19;;;18.40;69.64
45323;BME280;31382;50.200;8.674;2023-09-19T06:30:09;100007.00;;;18.32;69.82
45323;BME280;31382;50.200;8.674;2023-09-19T06:35:14;100007.59;;;18.34;69.27
45323;BME280;31382;50.200;8.674;2023-09-19T06:40:15;100016.84;;;18.33;68.98
45323;BME280;31382;50.200;8.674;2023-09-19T06:45:17;100028.91;;;18.37;68.67
45323;BME280;31382;50.200;8.674;2023-09-19T06:50:21;100039.81;;;18.49;68.36
45323;BME280;31382;50.200;8.674;2023-09-19T06:55:26;100047.72;;;18.62;68.02
45323;BME280;31382;50.200;8.674;2023-09-19T07:00:33;100049.97;;;18.77;67.84
45323;BME280;31382;50.200;8.674;2023-09-19T07:05:35;100061.81;;;18.59;68.15
45323;BME280;31382;50.200;8.674;2023-09-19T07:10:41;100076.81;;;18.50;68.14
45323;BME280;31382;50.200;8.674;2023-09-19T07:15:50;100078.16;;;18.59;67.93
45323;BME280;31382;50.200;8.674;2023-09-19T07:20:57;100086.69;;;18.62;67.77
45323;BME280;31382;50.200;8.674;2023-09-19T07:26:02;100092.56;;;18.59;67.73
45323;BME280;31382;50.200;8.674;2023-09-19T07:31:06;100108.84;;;18.78;67.27
45323;BME280;31382;50.200;8.674;2023-09-19T07:36:11;100117.97;;;18.83;67.15
45323;BME280;31382;50.200;8.674;2023-09-19T07:41:16;100125.91;;;18.97;66.83
45323;BME280;31382;50.200;8.674;2023-09-19T07:46:17;100117.59;;;19.03;66.30
45323;BME280;31382;50.200;8.674;2023-09-19T07:51:19;100119.41;;;19.10;66.12
45323;BME280;31382;50.200;8.674;2023-09-19T07:56:20;100127.56;;;19.10;65.97
45323;BME280;31382;50.200;8.674;2023-09-19T08:01:22;100129.44;;;19.09;65.26
45323;BME280;31382;50.200;8.674;2023-09-19T08:06:25;100136.56;;;19.22;64.83
45323;BME280;31382;50.200;8.674;2023-09-19T08:11:31;100131.47;;;19.26;64.47
45323;BME280;31382;50.200;8.674;2023-09-19T08:16:34;100125.16;;;19.37;63.62
45323;BME280;31382;50.200;8.674;2023-09-19T08:21:36;100134.16;;;19.49;63.25
45323;BME280;31382;50.200;8.674;2023-09-19T08:26:37;100141.41;;;19.44;62.25
45323;BME280;31382;50.200;8.674;2023-09-19T08:31:39;100149.22;;;19.40;61.86
45323;BME280;31382;50.200;8.674;2023-09-19T08:36:40;100157.28;;;19.35;60.21
45323;BME280;31382;50.200;8.674;2023-09-19T08:41:43;100153.00;;;19.39;59.68
45323;BME280;31382;50.200;8.674;2023-09-19T08:46:44;100151.31;;;19.61;59.17
45323;BME280;31382;50.200;8.674;2023-09-19T08:51:47;100146.81;;;19.79;58.59
45323;BME280;31382;50.200;8.674;2023-09-19T08:56:55;100148.69;;;19.78;58.12
45323;BME280;31382;50.200;8.674;2023-09-19T09:02:03;100154.59;;;19.87;57.49
45323;BME280;31382;50.200;8.674;2023-09-19T09:07:06;100148.47;;;20.09;56.94
45323;BME280;31382;50.200;8.674;2023-09-19T09:12:14;100157.31;;;19.87;55.75
45323;BME280;31382;50.200;8.674;2023-09-19T09:17:16;100155.88;;;19.96;55.58
45323;BME280;31382;50.200;8.674;2023-09-19T09:22:21;100155.63;;;19.98;54.71
45323;BME280;31382;50.200;8.674;2023-09-19T09:27:24;100143.81;;;20.09;54.75
45323;BME280;31382;50.200;8.674;2023-09-19T09:32:27;100147.91;;;20.24;54.62
45323;BME280;31382;50.200;8.674;2023-09-19T09:37:36;100150.75;;;20.46;54.62
45323;BME280;31382;50.200;8.674;2023-09-19T09:42:40;100152.53;;;20.52;53.67
45323;BME280;31382;50.200;8.674;2023-09-19T09:47:48;100152.31;;;20.70;53.43
45323;BME280;31382;50.200;8.674;2023-09-19T09:52:58;100155.34;;;20.91;53.44
45323;BME280;31382;50.200;8.674;2023-09-19T09:58:17;100163.91;;;20.94;52.81
45323;BME280;31382;50.200;8.674;2023-09-19T10:03:32;100154.97;;;20.82;52.71
45323;BME280;31382;50.200;8.674;2023-09-19T10:08:35;100157.75;;;21.21;52.08
45323;BME280;31382;50.200;8.674;2023-09-19T10:13:38;100160.75;;;21.42;51.58
45323;BME280;31382;50.200;8.674;2023-09-19T10:18:43;100151.97;;;21.56;50.52
45323;BME280;31382;50.200;8.674;2023-09-19T10:23:45;100155.53;;;21.79;49.91
45323;BME280;31382;50.200;8.674;2023-09-19T10:28:49;100143.66;;;21.95;49.43
45323;BME280;31382;50.200;8.674;2023-09-19T10:33:53;100131.59;;;22.18;48.59
45323;BME280;31382;50.200;8.674;2023-09-19T10:38:58;100145.22;;;22.13;48.23
45323;BME280;31382;50.200;8.674;2023-09-19T10:44:04;100148.94;;;22.24;47.14
45323;BME280;31382;50.200;8.674;2023-09-19T10:49:10;100155.09;;;22.14;46.34
45323;BME280;31382;50.200;8.674;2023-09-19T10:54:16;100162.31;;;21.98;45.02
45323;BME280;31382;50.200;8.674;2023-09-19T10:59:20;100155.00;;;22.04;44.43
45323;BME280;31382;50.200;8.674;2023-09-19T11:04:37;100148.28;;;22.17;44.40
45323;BME280;31382;50.200;8.674;2023-09-19T11:09:53;100149.09;;;22.40;44.06
45323;BME280;31382;50.200;8.674;2023-09-19T11:14:57;100147.66;;;22.64;43.48
45323;BME280;31382;50.200;8.674;2023-09-19T11:30:42;100128.47;;;22.64;42.15
45323;BME280;31382;50.200;8.674;2023-09-19T11:36:11;100112.91;;;22.70;41.78
45323;BME280;31382;50.200;8.674;2023-09-19T11:46:33;100110.91;;;23.40;40.91
45323;BME280;31382;50.200;8.674;2023-09-19T11:51:43;100117.00;;;23.52;40.13
45323;BME280;31382;50.200;8.674;2023-09-19T11:56:45;100118.88;;;23.42;39.06
45323;BME280;31382;50.200;8.674;2023-09-19T12:01:52;100115.44;;;23.72;38.81
45323;BME280;31382;50.200;8.674;2023-09-19T12:06:59;100119.63;;;23.90;38.51
45323;BME280;31382;50.200;8.674;2023-09-19T12:12:01;100118.84;;;24.00;38.17
45323;BME280;31382;50.200;8.674;2023-09-19T12:17:03;100114.81;;;24.64;37.20
45323;BME280;31382;50.200;8.674;2023-09-19T12:22:04;100110.41;;;24.73;35.91
45323;BME280;31382;50.200;8.674;2023-09-19T12:27:07;100105.72;;;24.58;36.04
45323;BME280;31382;50.200;8.674;2023-09-19T12:32:09;100096.41;;;24.74;36.34
45323;BME280;31382;50.200;8.674;2023-09-19T12:37:15;100093.34;;;24.76;36.51
45323;BME280;31382;50.200;8.674;2023-09-19T12:42:24;100087.88;;;24.56;36.04
45323;BME280;31382;50.200;8.674;2023-09-19T12:47:29;100086.47;;;24.68;35.77
45323;BME280;31382;50.200;8.674;2023-09-19T12:52:38;100076.00;;;24.96;35.15
45323;BME280;31382;50.200;8.674;2023-09-19T12:57:41;100072.16;;;24.97;34.46
45323;BME280;31382;50.200;8.674;2023-09-19T13:03:15;100069.63;;;25.16;35.36
45323;BME280;31382;50.200;8.674;2023-09-19T13:08:23;100070.13;;;25.33;35.55
45323;BME280;31382;50.200;8.674;2023-09-19T13:13:27;100075.69;;;25.13;34.89
45323;BME280;31382;50.200;8.674;2023-09-19T13:18:30;100060.50;;;25.31;34.59
45323;BME280;31382;50.200;8.674;2023-09-19T13:23:32;100064.13;;;25.16;34.19
45323;BME280;31382;50.200;8.674;2023-09-19T13:28:34;100065.50;;;25.24;33.65
45323;BME280;31382;50.200;8.674;2023-09-19T13:33:45;100062.44;;;25.25;33.04
45323;BME280;31382;50.200;8.674;2023-09-19T13:38:46;100057.88;;;24.85;33.68
45323;BME280;31382;50.200;8.674;2023-09-19T13:43:50;100070.53;;;24.60;34.02
45323;BME280;31382;50.200;8.674;2023-09-19T13:48:51;100061.47;;;24.49;34.34
45323;BME280;31382;50.200;8.674;2023-09-19T13:53:56;100062.56;;;24.23;34.94
45323;BME280;31382;50.200;8.674;2023-09-19T13:58:57;100039.50;;;24.54;34.26
45323;BME280;31382;50.200;8.674;2023-09-19T14:03:59;100042.13;;;26.21;32.06
45323;BME280;31382;50.200;8.674;2023-09-19T14:09:00;100038.69;;;28.03;30.24
45323;BME280;31382;50.200;8.674;2023-09-19T14:14:02;100028.25;;;28.33;29.91
45323;BME280;31382;50.200;8.674;2023-09-19T14:19:06;100019.00;;;28.56;29.43
45323;BME280;31382;50.200;8.674;2023-09-19T14:24:09;100032.00;;;27.23;30.27
45323;BME280;31382;50.200;8.674;2023-09-19T14:29:11;100023.44;;;27.00;31.17
45323;BME280;31382;50.200;8.674;2023-09-19T14:34:13;100017.03;;;26.81;30.95
45323;BME280;31382;50.200;8.674;2023-09-19T14:39:15;100014.22;;;26.57;31.50
45323;BME280;31382;50.200;8.674;2023-09-19T14:44:16;100007.88;;;26.85;31.30
45323;BME280;31382;50.200;8.674;2023-09-19T14:49:18;100004.81;;;26.58;31.33
45323;BME280;31382;50.200;8.674;2023-09-19T14:54:20;100003.31;;;27.00;31.04
45323;BME280;31382;50.200;8.674;2023-09-19T14:59:22;100001.97;;;27.78;30.13
45323;BME280;31382;50.200;8.674;2023-09-19T15:04:23;100005.34;;;27.13;30.28
45323;BME280;31382;50.200;8.674;2023-09-19T15:09:25;100011.22;;;26.24;30.78
45323;BME280;31382;50.200;8.674;2023-09-19T15:14:27;100007.00;;;25.58;31.84
45323;BME280;31382;50.200;8.674;2023-09-19T15:19:30;100012.19;;;25.04;32.30
45323;BME280;31382;50.200;8.674;2023-09-19T15:24:32;99997.91;;;24.92;33.00
45323;BME280;31382;50.200;8.674;2023-09-19T15:29:33;100003.34;;;25.12;32.68
45323;BME280;31382;50.200;8.674;2023-09-19T15:34:35;99997.06;;;24.97;32.79
45323;BME280;31382;50.200;8.674;2023-09-19T15:39:36;99997.88;;;25.02;33.67
45323;BME280;31382;50.200;8.674;2023-09-19T15:44:38;100002.09;;;24.69;33.83
45323;BME280;31382;50.200;8.674;2023-09-19T15:49:39;99990.06;;;24.24;34.58
45323;BME280;31382;50.200;8.674;2023-09-19T15:54:41;99984.84;;;24.27;35.31
45323;BME280;31382;50.200;8.674;2023-09-19T15:59:45;99982.09;;;24.17;35.78
45323;BME280;31382;50.200;8.674;2023-09-19T16:04:48;99977.94;;;24.25;35.71
45323;BME280;31382;50.200;8.674;2023-09-19T16:09:49;99987.31;;;24.24;35.77
45323;BME280;31382;50.200;8.674;2023-09-19T16:14:51;99980.13;;;24.38;35.53
45323;BME280;31382;50.200;8.674;2023-09-19T16:19:52;99977.94;;;24.56;35.79
45323;BME280;31382;50.200;8.674;2023-09-19T16:24:55;99969.97;;;24.49;35.82
45323;BME280;31382;50.200;8.674;2023-09-19T16:29:57;99972.72;;;24.59;36.09
45323;BME280;31382;50.200;8.674;2023-09-19T16:34:58;99971.94;;;24.18;36.96
45323;BME280;31382;50.200;8.674;2023-09-19T16:40:00;99967.25;;;23.87;37.34
45323;BME280;31382;50.200;8.674;2023-09-19T16:45:01;99966.38;;;23.56;38.06
45323;BME280;31382;50.200;8.674;2023-09-19T16:50:05;99961.41;;;23.48;38.11
45323;BME280;31382;50.200;8.674;2023-09-19T16:55:07;99953.13;;;23.27;38.68
45323;BME280;31382;50.200;8.674;2023-09-19T17:00:09;99952.00;;;23.18;38.90
45323;BME280;31382;50.200;8.674;2023-09-19T17:05:11;99955.53;;;23.03;39.63
45323;BME280;31382;50.200;8.674;2023-09-19T17:10:13;99960.94;;;22.93;39.84
45323;BME280;31382;50.200;8.674;2023-09-19T17:15:15;99969.91;;;22.73;40.41
45323;BME280;31382;50.200;8.674;2023-09-19T17:20:17;99972.28;;;22.59;40.96
45323;BME280;31382;50.200;8.674;2023-09-19T17:25:19;99982.91;;;22.50;41.26
45323;BME280;31382;50.200;8.674;2023-09-19T17:30:22;99986.06;;;22.32;41.74
45323;BME280;31382;50.200;8.674;2023-09-19T17:35:23;99980.28;;;22.28;42.08
45323;BME280;31382;50.200;8.674;2023-09-19T17:40:25;99987.31;;;22.19;42.47
45323;BME280;31382;50.200;8.674;2023-09-19T17:45:27;99989.16;;;22.13;42.52
45323;BME280;31382;50.200;8.674;2023-09-19T17:50:29;99989.47;;;22.17;42.89
45323;BME280;31382;50.200;8.674;2023-09-19T17:55:31;99993.31;;;22.16;43.20
45323;BME280;31382;50.200;8.674;2023-09-19T18:00:34;99990.47;;;22.06;43.45
45323;BME280;31382;50.200;8.674;2023-09-19T18:05:43;99998.59;;;21.95;44.01
45323;BME280;31382;50.200;8.674;2023-09-19T18:10:44;99998.75;;;21.84;44.77
45323;BME280;31382;50.200;8.674;2023-09-19T18:15:45;100005.94;;;21.90;44.81
45323;BME280;31382;50.200;8.674;2023-09-19T18:20:47;100015.72;;;21.81;45.32
45323;BME280;31382;50.200;8.674;2023-09-19T18:25:49;100017.66;;;21.85;45.39
45323;BME280;31382;50.200;8.674;2023-09-19T18:30:51;100018.72;;;21.79;45.72
45323;BME280;31382;50.200;8.674;2023-09-19T18:35:53;100020.53;;;21.68;46.29
45323;BME280;31382;50.200;8.674;2023-09-19T18:40:54;100025.06;;;21.57;46.40
45323;BME280;31382;50.200;8.674;2023-09-19T18:46:00;100043.56;;;21.50;47.01
45323;BME280;31382;50.200;8.674;2023-09-19T18:51:06;100032.56;;;21.45;47.02
45323;BME280;31382;50.200;8.674;2023-09-19T18:56:09;100035.41;;;21.33;47.63
45323;BME280;31382;50.200;8.674;2023-09-19T19:01:13;100037.34;;;21.33;47.73
45323;BME280;31382;50.200;8.674;2023-09-19T19:06:17;100042.16;;;21.26;47.81
45323;BME280;31382;50.200;8.674;2023-09-19T19:11:19;100042.41;;;21.24;48.12
45323;BME280;31382;50.200;8.674;2023-09-19T19:16:23;100046.72;;;21.20;48.05
45323;BME280;31382;50.200;8.674;2023-09-19T19:21:27;100029.75;;;21.18;48.65
45323;BME280;31382;50.200;8.674;2023-09-19T19:26:29;100035.75;;;21.15;48.30
45323;BME280;31382;50.200;8.674;2023-09-19T19:31:32;100028.81;;;21.07;48.92
45323;BME280;31382;50.200;8.674;2023-09-19T19:36:35;100037.25;;;21.06;49.18
45323;BME280;31382;50.200;8.674;2023-09-19T19:41:37;100039.59;;;20.97;49.25
45323;BME280;31382;50.200;8.674;2023-09-19T19:46:40;100040.22;;;20.82;49.79
45323;BME280;31382;50.200;8.674;2023-09-19T19:51:41;100039.69;;;20.85;49.50
45323;BME280;31382;50.200;8.674;2023-09-19T19:56:44;100040.06;;;20.72;49.90
45323;BME280;31382;50.200;8.674;2023-09-19T20:01:45;100049.00;;;20.67;49.94
45323;BME280;31382;50.200;8.674;2023-09-19T20:06:47;100047.13;;;20.68;50.51
45323;BME280;31382;50.200;8.674;2023-09-19T20:11:50;100058.91;;;20.56;50.43
45323;BME280;31382;50.200;8.674;2023-09-19T20:16:52;100059.91;;;20.50;50.90
45323;BME280;31382;50.200;8.674;2023-09-19T20:21:55;100062.22;;;20.41;51.10
45323;BME280;31382;50.200;8.674;2023-09-19T20:26:58;100064.88;;;20.36;51.28
45323;BME280;31382;50.200;8.674;2023-09-19T20:32:02;100072.50;;;20.34;51.14
45323;BME280;31382;50.200;8.674;2023-09-19T20:37:05;100074.72;;;20.20;51.42
45323;BME280;31382;50.200;8.674;2023-09-19T20:42:08;100071.13;;;20.03;52.27
45323;BME280;31382;50.200;8.674;2023-09-19T20:47:09;100077.69;;;19.90;52.58
45323;BME280;31382;50.200;8.674;2023-09-19T20:52:12;100073.41;;;19.94;52.39
45323;BME280;31382;50.200;8.674;2023-09-19T20:57:14;100070.44;;;19.96;52.58
45323;BME280;31382;50.200;8.674;2023-09-19T21:02:15;100070.38;;;19.91;52.88
45323;BME280;31382;50.200;8.674;2023-09-19T21:07:17;100066.22;;;19.88;52.62
45323;BME280;31382;50.200;8.674;2023-09-19T21:12:18;100072.88;;;19.80;52.82
45323;BME280;31382;50.200;8.674;2023-09-19T21:17:20;100068.41;;;19.74;53.22
45323;BME280;31382;50.200;8.674;2023-09-19T21:22:22;100064.41;;;19.65;53.42
45323;BME280;31382;50.200;8.674;2023-09-19T21:27:23;100067.84;;;19.60;53.43
45323;BME280;31382;50.200;8.674;2023-09-19T21:32:25;100060.38;;;19.56;53.78
45323;BME280;31382;50.200;8.674;2023-09-19T21:37:26;100055.63;;;19.63;53.50
45323;BME280;31382;50.200;8.674;2023-09-19T21:42:28;100065.69;;;19.62;53.88
45323;BME280;31382;50.200;8.674;2023-09-19T21:47:29;100072.59;;;19.65;53.48
45323;BME280;31382;50.200;8.674;2023-09-19T21:52:31;100070.25;;;19.57;53.86
45323;BME280;31382;50.200;8.674;2023-09-19T21:57:35;100070.72;;;19.54;54.22
45323;BME280;31382;50.200;8.674;2023-09-19T22:02:37;100070.88;;;19.47;54.62
45323;BME280;31382;50.200;8.674;2023-09-19T22:07:39;100069.06;;;19.41;54.35
45323;BME280;31382;50.200;8.674;2023-09-19T22:12:41;100073.03;;;19.33;55.02
45323;BME280;31382;50.200;8.674;2023-09-19T22:17:42;100067.22;;;19.30;54.97
45323;BME280;31382;50.200;8.674;2023-09-19T22:22:44;100063.34;;;19.26;55.19
45323;BME280;31382;50.200;8.674;2023-09-19T22:27:46;100056.59;;;19.16;55.57
45323;BME280;31382;50.200;8.674;2023-09-19T22:32:47;100060.84;;;19.24;55.71
45323;BME280;31382;50.200;8.674;2023-09-19T22:37:49;100062.59;;;19.30;55.57
45323;BME280;31382;50.200;8.674;2023-09-19T22:43:04;100062.22;;;19.38;55.19
45323;BME280;31382;50.200;8.674;2023-09-19T22:48:08;100073.06;;;19.21;55.94
45323;BME280;31382;50.200;8.674;2023-09-19T22:53:11;100073.66;;;19.24;55.72
45323;BME280;31382;50.200;8.674;2023-09-19T22:58:18;100076.97;;;19.14;56.12
45323;BME280;31382;50.200;8.674;2023-09-19T23:03:20;100069.75;;;19.08;56.53
45323;BME280;31382;50.200;8.674;2023-09-19T23:08:23;100072.81;;;18.99;56.55
45323;BME280;31382;50.200;8.674;2023-09-19T23:13:25;100074.16;;;18.85;57.06
45323;BME280;31382;50.200;8.674;2023-09-19T23:18:31;100069.03;;;18.77;56.81
45323;BME280;31382;50.200;8.674;2023-09-19T23:23:34;100066.66;;;18.69;57.54
45323;BME280;31382;50.200;8.674;2023-09-19T23:28:36;100072.34;;;18.67;57.64
45323;BME280;31382;50.200;8.674;2023-09-19T23:33:44;100078.59;;;18.68;57.69
45323;BME280;31382;50.200;8.674;2023-09-19T23:38:45;100074.47;;;18.65;57.92
45323;BME280;31382;50.200;8.674;2023-09-19T23:43:48;100069.97;;;18.71;57.79
45323;BME280;31382;50.200;8.674;2023-09-19T23:48:54;100062.75;;;18.65;58.23
45323;BME280;31382;50.200;8.674;2023-09-19T23:53:56;100051.03;;;18.76;57.87
45323;BME280;31382;50.200;8.674;2023-09-19T23:58:57;100037.44;;;18.88;57.96
